createdAt,value
2022-09-15T00:04:17.007Z,5.78
2022-09-15T02:11:52.619Z,6.03
2022-09-15T02:14:53.057Z,5.47
2022-09-15T02:24:22.817Z,6.43
2022-09-15T02:35:29.810Z,5.63
2022-09-15T03:02:21.323Z,6.40
2022-09-15T03:05:12.131Z,6.07
2022-09-15T03:08:26.096Z,7.00
2022-09-15T03:16:00.937Z,6.70
2022-09-15T03:19:15.190Z,6.60
2022-09-15T03:32:40.012Z,6.63
2022-09-15T03:38:14.072Z,7.15
2022-09-15T03:44:14.250Z,8.07
2022-09-15T03:47:16.642Z,6.88
2022-09-15T03:50:11.419Z,7.35
2022-09-15T03:52:40.761Z,7.90
2022-09-15T03:55:17.677Z,7.57
2022-09-15T04:01:17.262Z,8.20
2022-09-15T04:04:10.769Z,8.50
2022-09-15T04:07:09.510Z,8.07
2022-09-15T04:10:11.846Z,8.27
2022-09-15T04:13:11.336Z,8.55
2022-09-15T04:16:10.366Z,8.50
2022-09-15T04:19:12.168Z,8.10
2022-09-15T04:21:48.718Z,9.05
2022-09-15T04:24:36.195Z,8.73
2022-09-15T04:27:18.300Z,8.68
2022-09-15T04:30:18.867Z,9.02
2022-09-15T04:32:50.913Z,8.30
2022-09-15T04:35:21.932Z,8.07
2022-09-15T04:47:40.573Z,8.75
2022-09-15T04:52:38.635Z,8.85
2022-09-15T04:58:40.242Z,8.48
2022-09-15T05:04:39.132Z,8.98
2022-09-15T05:07:36.849Z,9.32
2022-09-15T05:13:24.487Z,9.95
2022-09-15T05:16:41.135Z,9.15
2022-09-15T05:22:41.860Z,8.52
2022-09-15T05:25:33.571Z,8.20
2022-09-15T05:28:01.815Z,9.45
2022-09-15T05:34:36.419Z,8.55
2022-09-15T05:41:04.978Z,8.82
2022-09-15T05:43:45.890Z,8.07
2022-09-15T05:46:23.957Z,8.25
2022-09-15T05:49:33.192Z,9.30
2022-09-15T05:52:39.163Z,8.32
2022-09-15T05:58:31.478Z,8.45
2022-09-15T06:01:33.231Z,9.47
2022-09-15T06:04:34.650Z,8.93
2022-09-15T06:07:35.081Z,8.38
2022-09-15T06:13:06.403Z,9.05
2022-09-15T06:15:34.852Z,8.68
2022-09-15T06:18:30.820Z,8.27
2022-09-15T06:21:30.735Z,10.35
2022-09-15T06:27:36.142Z,9.93
2022-09-15T06:30:13.858Z,9.43
2022-09-15T06:32:45.153Z,9.35
2022-09-15T06:35:34.445Z,9.25
2022-09-15T06:38:38.752Z,10.02
2022-09-15T06:41:08.279Z,9.48
2022-09-15T06:46:59.898Z,9.27
2022-09-15T06:53:01.353Z,9.60
2022-09-15T06:59:31.312Z,9.98
2022-09-15T07:12:00.346Z,9.32
2022-09-15T07:14:59.063Z,9.38
2022-09-15T07:18:01.241Z,9.65
2022-09-15T07:21:30.545Z,9.55
2022-09-15T07:24:02.691Z,9.38
2022-09-15T07:26:59.816Z,10.43
2022-09-15T07:32:31.669Z,9.52
2022-09-15T07:35:00.118Z,10.05
2022-09-15T07:37:57.501Z,10.48
2022-09-15T07:41:00.325Z,9.30
2022-09-15T07:43:32.026Z,10.07
2022-09-15T07:46:04.556Z,10.07
2022-09-15T07:48:57.647Z,10.07
2022-09-15T07:54:28.021Z,9.68
2022-09-15T07:56:59.028Z,10.20
2022-09-15T08:00:02.968Z,10.18
2022-09-15T08:02:55.802Z,9.68
2022-09-15T08:05:38.136Z,9.85
2022-09-15T08:10:56.333Z,9.77
2022-09-15T08:16:29.014Z,8.80
2022-09-15T08:18:57.911Z,9.80
2022-09-15T08:33:55.394Z,9.68
2022-09-15T08:36:25.561Z,9.38
2022-09-15T08:38:56.894Z,9.25
2022-09-15T08:41:52.579Z,9.48
2022-09-15T08:44:58.340Z,8.70
2022-09-15T08:47:57.061Z,9.10
2022-09-15T08:54:03.501Z,9.40
2022-09-15T08:56:56.048Z,8.95
2022-09-15T09:02:55.609Z,9.15
2022-09-15T09:06:21.641Z,8.50
2022-09-15T09:09:22.060Z,9.80
2022-09-15T09:12:14.896Z,9.27
2022-09-15T09:15:13.636Z,9.10
2022-09-15T09:18:21.462Z,9.43
2022-09-15T09:21:35.451Z,9.13
2022-09-15T09:28:20.309Z,8.95
2022-09-15T09:38:18.447Z,8.07
2022-09-15T09:40:51.695Z,8.53
2022-09-15T09:43:23.218Z,8.52
2022-09-15T09:46:20.183Z,9.15
2022-09-15T09:49:23.936Z,8.95
2022-09-15T09:52:08.261Z,8.90
2022-09-15T09:55:20.805Z,9.13
2022-09-15T09:57:49.018Z,8.85
2022-09-15T10:01:19.830Z,8.57
2022-09-15T10:03:48.306Z,8.85
2022-09-15T10:06:35.307Z,8.63
2022-09-15T10:10:17.722Z,8.52
2022-09-15T10:16:18.958Z,8.53
2022-09-15T10:21:48.253Z,8.70
2022-09-15T10:24:30.030Z,8.50
2022-09-15T10:30:21.564Z,8.25
2022-09-15T10:35:50.795Z,8.90
2022-09-15T10:38:29.718Z,8.27
2022-09-15T10:41:48.861Z,8.45
2022-09-15T10:44:49.188Z,8.02
2022-09-15T10:47:44.680Z,8.00
2022-09-15T10:50:18.706Z,8.80
2022-09-15T10:53:14.027Z,8.75
2022-09-15T10:56:14.729Z,8.02
2022-09-15T10:58:48.567Z,7.50
2022-09-15T11:05:16.878Z,8.73
2022-09-15T11:11:43.681Z,7.78
2022-09-15T11:18:42.943Z,7.97
2022-09-15T11:24:49.872Z,8.43
2022-09-15T11:27:18.251Z,8.38
2022-09-15T11:33:41.351Z,8.80
2022-09-15T11:36:50.809Z,8.43
2022-09-15T11:43:48.492Z,7.45
2022-09-15T11:50:41.494Z,6.72
2022-09-15T11:53:00.162Z,6.70
2022-09-15T11:59:40.913Z,6.93
2022-09-15T12:23:39.674Z,6.90
2022-09-15T12:47:42.928Z,7.70
2022-09-15T12:50:45.968Z,6.10
2022-09-15T12:53:51.643Z,5.97
2022-09-15T12:59:48.566Z,6.80
2022-09-15T13:02:51.674Z,7.03
2022-09-15T13:08:10.407Z,8.18
2022-09-15T13:15:08.847Z,7.00
2022-09-15T13:18:06.555Z,8.07
2022-09-15T13:21:06.303Z,8.45
2022-09-15T13:24:08.362Z,9.20
2022-09-15T13:31:03.454Z,9.60
2022-09-15T13:41:08.133Z,8.57
2022-09-15T13:44:07.217Z,8.20
2022-09-15T13:47:35.265Z,8.98
2022-09-15T13:50:26.855Z,9.40
2022-09-15T13:55:43.220Z,8.90
2022-09-15T14:01:14.048Z,8.50
2022-09-15T14:03:52.975Z,8.07
2022-09-15T14:06:34.818Z,7.80
2022-09-15T14:09:13.574Z,8.88
2022-09-15T14:11:52.963Z,8.52
2022-09-15T14:14:47.914Z,8.15
2022-09-15T14:17:30.708Z,7.80
2022-09-15T14:20:07.209Z,7.95
2022-09-15T14:22:40.458Z,7.72
2022-09-15T14:28:03.167Z,7.57
2022-09-15T14:30:33.148Z,7.85
2022-09-15T14:40:29.932Z,7.10
2022-09-15T14:49:31.009Z,9.43
2022-09-15T14:52:35.988Z,10.13
2022-09-15T14:55:30.377Z,8.88
2022-09-15T14:58:39.282Z,8.77
2022-09-15T15:01:59.251Z,8.95
2022-09-15T15:05:29.619Z,8.70
2022-09-15T15:07:58.845Z,8.35
2022-09-15T15:10:36.512Z,8.25
2022-09-15T15:13:57.990Z,7.95
2022-09-15T15:20:33.107Z,6.97
2022-09-15T15:23:37.748Z,7.25
2022-09-15T15:29:57.321Z,6.82
2022-09-15T15:32:29.011Z,6.65
2022-09-15T15:35:04.434Z,7.75
2022-09-15T15:37:36.076Z,7.28
2022-09-15T15:40:28.014Z,6.82
2022-09-15T15:43:56.237Z,6.68
2022-09-15T15:47:01.391Z,6.35
2022-09-15T15:57:54.200Z,6.00
2022-09-15T16:03:58.208Z,6.13
2022-09-15T16:06:56.690Z,6.28
2022-09-15T16:09:55.920Z,6.10
2022-09-15T16:19:54.605Z,5.72
2022-09-15T16:22:53.006Z,6.17
2022-09-15T16:25:54.740Z,5.55
2022-09-15T16:36:53.612Z,4.43
2022-09-15T16:39:21.861Z,4.88
2022-09-15T16:41:50.305Z,4.78
2022-09-15T16:47:20.445Z,4.90
2022-09-15T16:49:54.522Z,5.22
2022-09-15T16:52:22.729Z,4.22
2022-09-15T16:54:51.206Z,4.53
2022-09-15T16:57:23.232Z,4.82
2022-09-15T16:59:51.417Z,4.03
2022-09-15T17:02:19.981Z,4.20
2022-09-15T17:04:51.642Z,4.20
2022-09-15T17:07:23.527Z,4.53
2022-09-15T17:09:52.227Z,4.00
2022-09-15T17:12:22.298Z,3.85
2022-09-15T17:14:50.676Z,4.20
2022-09-15T17:17:26.946Z,4.22
2022-09-15T17:19:55.379Z,4.95
2022-09-15T17:22:23.612Z,4.25
2022-09-15T17:24:51.867Z,5.10
2022-09-15T17:27:20.069Z,4.30
2022-09-15T17:29:48.589Z,4.70
2022-09-15T17:38:23.846Z,4.45
2022-09-15T17:41:24.042Z,4.32
2022-09-15T17:44:21.419Z,4.32
2022-09-15T17:46:50.579Z,4.10
2022-09-15T17:52:22.293Z,4.38
2022-09-15T18:02:20.320Z,4.75
2022-09-15T18:10:46.427Z,4.45
2022-09-15T18:13:25.380Z,4.30
2022-09-15T18:16:20.131Z,4.50
2022-09-15T18:18:48.570Z,4.20
2022-09-15T18:21:28.872Z,4.43
2022-09-15T18:28:16.421Z,4.25
2022-09-15T18:31:16.655Z,4.78
2022-09-15T18:33:45.082Z,4.20
2022-09-15T18:36:16.820Z,4.10
2022-09-15T18:38:45.160Z,4.10
2022-09-15T18:41:16.343Z,4.72
2022-09-15T18:43:44.678Z,4.32
2022-09-15T18:46:13.890Z,4.50
2022-09-15T18:48:42.647Z,4.45
2022-09-15T18:51:24.156Z,3.97
2022-09-15T18:56:44.598Z,4.28
2022-09-15T18:59:16.649Z,4.18
2022-09-15T19:01:46.092Z,4.20
2022-09-15T19:04:15.089Z,4.45
2022-09-15T19:06:46.417Z,4.97
2022-09-15T19:09:23.410Z,4.55
2022-09-15T19:11:51.748Z,4.57
2022-09-15T19:14:24.816Z,4.85
2022-09-15T19:16:58.069Z,4.75
2022-09-15T19:19:39.990Z,4.60
2022-09-15T19:22:36.229Z,4.38
2022-09-15T19:27:48.751Z,4.65
2022-09-15T19:33:44.401Z,4.63
2022-09-15T19:36:45.468Z,4.32
2022-09-15T19:44:44.709Z,4.10
2022-09-15T19:47:13.002Z,4.15
2022-09-15T19:49:44.072Z,3.90
2022-09-15T19:52:13.662Z,4.15
2022-09-15T19:54:41.967Z,4.22
2022-09-15T19:57:13.284Z,4.00
2022-09-15T19:59:45.526Z,4.63
2022-09-15T20:02:44.415Z,4.35
2022-09-15T20:05:11.487Z,4.65
2022-09-15T20:07:42.607Z,4.40
2022-09-15T20:13:10.605Z,4.38
2022-09-15T20:15:43.781Z,4.25
2022-09-15T20:18:13.408Z,4.30
2022-09-15T20:20:41.826Z,4.20
2022-09-15T20:23:10.058Z,4.15
2022-09-15T20:25:41.121Z,4.28
2022-09-15T20:28:12.432Z,4.38
2022-09-15T20:30:43.649Z,4.10
2022-09-15T20:33:11.924Z,4.53
2022-09-15T20:35:43.024Z,4.32
2022-09-15T20:38:11.290Z,4.30
2022-09-15T20:40:42.741Z,4.55
2022-09-15T20:43:11.036Z,4.03
2022-09-15T20:45:42.374Z,4.30
2022-09-15T20:48:10.624Z,4.00
2022-09-15T20:50:41.820Z,4.00
2022-09-15T20:53:10.047Z,4.80
2022-09-15T20:55:41.290Z,4.05
2022-09-15T20:58:11.780Z,4.22
2022-09-15T21:00:40.024Z,4.45
2022-09-15T21:03:17.503Z,4.15
2022-09-15T21:06:11.389Z,3.90
2022-09-15T21:09:08.383Z,3.78
2022-09-15T21:14:25.388Z,4.20
2022-09-15T21:21:39.894Z,3.78
2022-09-15T21:24:11.337Z,3.88
2022-09-15T21:30:09.296Z,3.92
2022-09-15T21:32:38.591Z,4.32
2022-09-15T21:35:12.852Z,4.32
2022-09-15T21:38:08.924Z,4.55
2022-09-15T21:43:40.552Z,4.30
2022-09-15T21:46:12.326Z,4.35
2022-09-15T21:49:07.429Z,4.30
2022-09-15T21:51:38.555Z,4.53
2022-09-15T21:54:10.940Z,4.03
2022-09-15T21:56:39.192Z,4.47
2022-09-15T21:59:12.110Z,4.50
2022-09-15T22:02:13.462Z,4.55
2022-09-15T22:07:36.506Z,4.95
2022-09-15T22:10:07.922Z,5.13
2022-09-15T22:12:39.186Z,5.00
2022-09-15T22:15:10.128Z,5.50
2022-09-15T22:21:17.732Z,5.32
2022-09-15T23:41:13.391Z,3.80
